createdAt,value
2022-07-26T00:00:13.053Z,1.15
2022-07-26T00:02:47.759Z,1.25
2022-07-26T00:05:16.576Z,1.35
2022-07-26T00:07:44.192Z,1.30
2022-07-26T00:10:12.544Z,1.73
2022-07-26T00:12:39.855Z,1.20
2022-07-26T00:15:10.182Z,1.35
2022-07-26T00:17:37.457Z,1.35
2022-07-26T00:20:04.833Z,1.38
2022-07-26T00:22:34.633Z,1.10
2022-07-26T00:25:06.283Z,1.00
2022-07-26T00:27:36.872Z,1.27
2022-07-26T00:30:06.049Z,1.42
2022-07-26T00:32:32.842Z,1.00
2022-07-26T00:34:59.527Z,1.02
2022-07-26T00:37:26.257Z,1.23
2022-07-26T00:39:52.997Z,1.38
2022-07-26T00:42:19.714Z,1.38
2022-07-26T00:44:47.204Z,1.70
2022-07-26T00:47:14.642Z,1.80
2022-07-26T00:49:42.265Z,1.90
2022-07-26T00:52:10.125Z,1.25
2022-07-26T00:54:37.914Z,1.40
2022-07-26T00:57:05.189Z,1.50
2022-07-26T00:59:32.063Z,1.65
2022-07-26T01:01:58.877Z,1.60
2022-07-26T01:04:25.930Z,1.27
2022-07-26T01:06:53.271Z,2.08
2022-07-26T01:09:20.141Z,1.35
2022-07-26T01:11:46.953Z,1.30
2022-07-26T01:14:13.693Z,1.40
2022-07-26T01:16:40.621Z,1.30
2022-07-26T01:19:07.576Z,1.33
2022-07-26T01:21:34.488Z,1.35
2022-07-26T01:24:01.337Z,1.10
2022-07-26T01:26:28.467Z,1.23
2022-07-26T01:28:55.160Z,1.40
2022-07-26T01:31:21.932Z,1.30
2022-07-26T01:33:49.136Z,1.30
2022-07-26T01:36:16.155Z,1.42
2022-07-26T01:38:42.892Z,1.80
2022-07-26T01:41:09.712Z,1.08
2022-07-26T01:43:37.380Z,1.40
2022-07-26T01:46:05.488Z,1.10
2022-07-26T01:48:32.336Z,1.00
2022-07-26T01:50:59.206Z,1.13
2022-07-26T01:53:25.904Z,0.98
2022-07-26T01:55:52.745Z,1.30
2022-07-26T01:58:19.498Z,0.90
2022-07-26T02:00:46.268Z,1.35
2022-07-26T02:03:13.003Z,1.25
2022-07-26T02:05:39.693Z,1.50
2022-07-26T02:08:06.471Z,1.25
2022-07-26T02:10:52.565Z,1.10
2022-07-26T02:13:19.311Z,0.98
2022-07-26T02:15:46.117Z,0.95
2022-07-26T02:18:12.916Z,1.10
2022-07-26T02:20:39.564Z,1.15
2022-07-26T02:23:06.447Z,1.17
2022-07-26T02:25:33.354Z,1.33
2022-07-26T02:28:01.151Z,1.42
2022-07-26T02:30:28.215Z,1.20
2022-07-26T02:32:55.509Z,1.50
2022-07-26T02:35:22.255Z,1.20
2022-07-26T02:37:48.965Z,1.35
2022-07-26T02:40:19.309Z,1.40
2022-07-26T02:42:46.477Z,1.10
2022-07-26T02:45:13.156Z,1.20
2022-07-26T02:47:50.340Z,1.00
2022-07-26T02:50:22.464Z,1.10
2022-07-26T02:52:50.087Z,1.40
2022-07-26T02:55:18.861Z,1.10
2022-07-26T02:57:47.032Z,1.23
2022-07-26T03:00:16.688Z,1.63
2022-07-26T03:02:43.737Z,1.30
2022-07-26T03:05:10.641Z,1.58
2022-07-26T03:07:37.470Z,1.70
2022-07-26T03:10:04.831Z,1.40
2022-07-26T03:12:31.549Z,1.73
2022-07-26T03:14:58.272Z,1.38
2022-07-26T03:17:25.276Z,1.27
2022-07-26T03:19:52.016Z,1.40
2022-07-26T03:22:18.753Z,1.58
2022-07-26T03:24:45.392Z,1.33
2022-07-26T03:27:12.070Z,1.60
2022-07-26T03:29:38.783Z,1.30
2022-07-26T03:32:05.931Z,1.35
2022-07-26T03:34:32.874Z,1.48
2022-07-26T03:36:59.574Z,1.48
2022-07-26T03:39:26.274Z,1.75
2022-07-26T03:41:52.969Z,1.70
2022-07-26T03:44:19.649Z,1.98
2022-07-26T03:46:46.435Z,1.67
2022-07-26T03:49:16.526Z,1.90
2022-07-26T03:51:44.623Z,1.60
2022-07-26T03:54:11.867Z,2.33
2022-07-26T03:56:40.020Z,2.47
2022-07-26T03:59:11.185Z,2.00
2022-07-26T04:01:42.586Z,1.88
2022-07-26T04:04:10.690Z,2.00
2022-07-26T04:06:39.073Z,2.35
2022-07-26T04:09:07.186Z,1.73
2022-07-26T04:11:35.276Z,1.77
2022-07-26T04:14:02.063Z,1.63
2022-07-26T04:16:29.118Z,1.58
2022-07-26T04:18:56.296Z,1.50
2022-07-26T04:21:23.111Z,1.83
2022-07-26T04:23:51.537Z,1.30
2022-07-26T04:26:21.069Z,2.10
2022-07-26T04:28:47.891Z,1.83
2022-07-26T04:31:14.666Z,2.08
2022-07-26T04:33:41.597Z,2.08
2022-07-26T04:36:08.787Z,1.83
2022-07-26T04:38:35.526Z,1.83
2022-07-26T04:41:02.256Z,1.88
2022-07-26T04:43:28.938Z,2.05
2022-07-26T04:45:57.403Z,1.70
2022-07-26T04:48:24.644Z,2.03
2022-07-26T04:50:51.601Z,1.77
2022-07-26T04:53:18.421Z,2.17
2022-07-26T04:55:45.506Z,1.90
2022-07-26T04:58:12.677Z,1.67
2022-07-26T05:03:26.342Z,1.70
2022-07-26T05:05:53.457Z,2.25
2022-07-26T05:08:20.358Z,2.08
2022-07-26T05:10:53.001Z,1.65
2022-07-26T05:13:29.497Z,2.30
2022-07-26T05:15:57.184Z,1.50
2022-07-26T05:18:23.877Z,2.20
2022-07-26T05:20:51.501Z,2.22
2022-07-26T05:23:20.332Z,2.38
2022-07-26T05:25:47.397Z,2.00
2022-07-26T05:28:14.445Z,1.70
2022-07-26T05:30:41.230Z,2.25
2022-07-26T05:33:08.045Z,2.00
2022-07-26T05:35:34.793Z,1.73
2022-07-26T05:38:01.544Z,1.80
2022-07-26T05:40:28.343Z,1.65
2022-07-26T05:42:54.992Z,2.15
2022-07-26T05:45:21.830Z,2.42
2022-07-26T05:47:52.242Z,2.15
2022-07-26T05:50:19.545Z,1.85
2022-07-26T05:52:46.328Z,2.50
2022-07-26T05:55:13.275Z,2.20
2022-07-26T05:57:45.410Z,1.67
2022-07-26T06:00:12.462Z,2.35
2022-07-26T06:02:40.651Z,2.03
2022-07-26T06:05:07.888Z,1.95
2022-07-26T06:07:34.714Z,2.10
2022-07-26T06:10:01.421Z,1.88
2022-07-26T06:12:28.115Z,2.03
2022-07-26T06:14:54.874Z,2.20
2022-07-26T06:17:21.658Z,2.08
2022-07-26T06:19:48.423Z,2.20
2022-07-26T06:22:15.390Z,2.13
2022-07-26T06:24:42.108Z,1.80
2022-07-26T06:27:08.799Z,2.20
2022-07-26T06:29:35.508Z,2.13
2022-07-26T06:32:02.244Z,1.80
2022-07-26T06:34:29.380Z,2.10
2022-07-26T06:36:56.122Z,2.30
2022-07-26T06:39:22.788Z,2.17
2022-07-26T06:41:49.531Z,2.22
2022-07-26T06:44:22.631Z,1.65
2022-07-26T06:46:49.714Z,1.58
2022-07-26T06:49:20.573Z,2.22
2022-07-26T06:51:49.111Z,1.90
2022-07-26T06:54:15.871Z,1.95
2022-07-26T06:56:42.559Z,1.80
2022-07-26T06:59:09.748Z,1.73
2022-07-26T07:01:58.035Z,1.50
2022-07-26T07:04:23.197Z,1.90
2022-07-26T07:06:50.080Z,1.90
2022-07-26T07:09:17.283Z,1.95
2022-07-26T07:11:44.335Z,1.83
2022-07-26T07:14:11.935Z,1.52
2022-07-26T07:16:38.693Z,1.25
2022-07-26T07:19:05.465Z,1.60
2022-07-26T07:21:33.700Z,1.50
2022-07-26T07:24:00.405Z,1.75
2022-07-26T07:26:28.721Z,1.75
2022-07-26T07:28:55.835Z,1.70
2022-07-26T07:31:30.190Z,1.70
2022-07-26T07:33:57.753Z,1.33
2022-07-26T07:36:24.614Z,1.73
2022-07-26T07:38:51.467Z,1.40
2022-07-26T07:41:18.876Z,1.30
2022-07-26T07:43:45.665Z,1.20
2022-07-26T07:46:13.640Z,1.40
2022-07-26T07:48:46.647Z,1.00
2022-07-26T07:51:14.211Z,1.10
2022-07-26T07:53:40.932Z,1.10
2022-07-26T07:56:07.994Z,1.10
2022-07-26T07:58:34.745Z,1.17
2022-07-26T08:01:03.917Z,1.35
2022-07-26T08:03:38.572Z,0.88
2022-07-26T08:06:08.083Z,1.50
2022-07-26T08:08:36.068Z,1.30
2022-07-26T08:11:04.078Z,1.13
2022-07-26T08:13:34.684Z,0.98
2022-07-26T08:16:01.328Z,1.05
2022-07-26T08:18:28.076Z,1.10
2022-07-26T08:20:55.779Z,1.10
2022-07-26T08:23:22.742Z,0.90
2022-07-26T08:26:00.687Z,1.05
2022-07-26T08:28:46.920Z,1.13
2022-07-26T08:31:15.477Z,0.85
2022-07-26T08:33:45.825Z,1.20
2022-07-26T08:36:17.163Z,1.30
2022-07-26T08:38:44.698Z,1.10
2022-07-26T08:41:14.304Z,1.23
2022-07-26T08:43:52.296Z,1.42
2022-07-26T08:46:25.436Z,1.27
2022-07-26T08:48:53.739Z,1.60
2022-07-26T08:51:22.483Z,1.33
2022-07-26T08:53:50.443Z,1.30
2022-07-26T08:56:17.100Z,1.30
2022-07-26T08:58:45.571Z,1.30
2022-07-26T09:01:12.923Z,1.13
2022-07-26T09:03:40.853Z,1.35
2022-07-26T09:06:21.812Z,1.27
2022-07-26T09:08:51.373Z,1.10
2022-07-26T09:11:28.254Z,1.30
2022-07-26T09:14:00.669Z,1.48
2022-07-26T09:16:28.161Z,1.65
2022-07-26T09:18:56.165Z,1.20
2022-07-26T09:21:31.201Z,1.50
2022-07-26T09:23:58.905Z,1.08
2022-07-26T09:26:26.101Z,1.13
2022-07-26T09:29:11.527Z,1.02
2022-07-26T09:31:39.390Z,0.82
2022-07-26T09:34:07.415Z,1.08
2022-07-26T09:36:51.588Z,0.40
2022-07-26T09:39:18.378Z,0.40
2022-07-26T09:42:26.723Z,0.47
2022-07-26T09:44:55.582Z,0.50
2022-07-26T09:47:22.722Z,0.50
2022-07-26T09:49:49.560Z,0.43
2022-07-26T09:52:21.453Z,0.47
2022-07-26T09:54:49.464Z,0.43
2022-07-26T09:57:18.687Z,0.47
2022-07-26T09:59:46.420Z,0.80
2022-07-26T10:02:14.089Z,0.45
2022-07-26T10:04:42.197Z,0.63
2022-07-26T10:07:10.433Z,0.45
2022-07-26T10:09:54.430Z,0.80
2022-07-26T10:12:28.549Z,0.70
2022-07-26T10:14:57.147Z,0.77
2022-07-26T10:17:31.620Z,0.68
2022-07-26T10:20:01.735Z,0.55
2022-07-26T10:22:34.172Z,0.60
2022-07-26T10:25:19.062Z,0.77
2022-07-26T10:27:47.910Z,0.93
2022-07-26T10:30:17.503Z,0.80
2022-07-26T10:33:06.172Z,0.57
2022-07-26T10:35:43.944Z,0.65
2022-07-26T10:38:14.250Z,0.40
2022-07-26T10:40:57.993Z,1.00
2022-07-26T10:43:42.031Z,0.90
2022-07-26T10:46:30.886Z,0.40
2022-07-26T10:49:07.408Z,0.80
2022-07-26T10:51:37.237Z,0.57
2022-07-26T10:54:09.541Z,0.60
2022-07-26T10:56:36.676Z,0.80
2022-07-26T10:59:04.521Z,0.80
2022-07-26T11:01:43.001Z,0.70
2022-07-26T11:04:20.377Z,0.47
2022-07-26T11:06:47.420Z,0.77
2022-07-26T11:09:14.267Z,0.90
2022-07-26T11:11:46.518Z,0.88
2022-07-26T11:14:16.404Z,0.60
2022-07-26T11:16:46.482Z,0.70
2022-07-26T11:19:15.597Z,1.15
2022-07-26T11:21:43.904Z,1.40
2022-07-26T11:24:11.522Z,0.98
2022-07-26T11:26:43.315Z,1.13
2022-07-26T11:29:10.263Z,1.02
2022-07-26T11:31:55.638Z,0.70
2022-07-26T11:34:33.667Z,0.82
2022-07-26T11:37:03.174Z,0.88
2022-07-26T11:39:33.036Z,0.90
2022-07-26T11:42:11.964Z,0.90
2022-07-26T11:44:43.609Z,0.90
2022-07-26T11:47:15.179Z,0.90
2022-07-26T11:50:00.233Z,1.10
2022-07-26T11:52:32.334Z,1.17
2022-07-26T11:54:59.585Z,1.08
2022-07-26T11:57:30.930Z,0.90
2022-07-26T11:59:58.978Z,0.70
2022-07-26T12:02:26.298Z,0.80
2022-07-26T12:05:20.569Z,0.45
2022-07-26T12:07:59.284Z,0.60
2022-07-26T12:10:27.030Z,0.60
2022-07-26T12:13:14.710Z,0.82
2022-07-26T12:15:52.678Z,1.10
2022-07-26T12:18:30.866Z,0.60
2022-07-26T12:21:06.653Z,0.80
2022-07-26T12:23:50.746Z,0.95
2022-07-26T12:26:28.361Z,0.80
2022-07-26T12:28:56.555Z,0.60
2022-07-26T12:31:25.809Z,0.55
2022-07-26T12:33:52.779Z,0.45
2022-07-26T12:36:27.922Z,0.95
2022-07-26T12:38:57.376Z,0.30
2022-07-26T12:41:32.238Z,0.60
2022-07-26T12:43:59.783Z,0.63
2022-07-26T12:46:26.577Z,0.43
2022-07-26T12:48:56.824Z,0.38
2022-07-26T12:51:26.802Z,0.45
2022-07-26T12:53:53.625Z,0.40
2022-07-26T12:56:20.324Z,0.30
2022-07-26T12:58:46.974Z,0.45
2022-07-26T13:01:13.755Z,0.60
2022-07-26T13:03:40.485Z,1.33
2022-07-26T13:06:07.350Z,1.00
2022-07-26T13:08:34.049Z,0.40
2022-07-26T13:11:00.712Z,0.30
2022-07-26T13:13:27.423Z,0.63
2022-07-26T13:15:54.081Z,0.50
2022-07-26T13:18:20.803Z,0.45
2022-07-26T13:20:47.489Z,0.63
2022-07-26T13:23:18.434Z,0.50
2022-07-26T13:25:48.694Z,0.60
2022-07-26T13:28:16.977Z,0.35
2022-07-26T13:30:44.821Z,0.50
2022-07-26T13:33:12.218Z,1.27
2022-07-26T13:35:41.327Z,0.52
2022-07-26T13:38:08.404Z,0.73
2022-07-26T13:40:35.225Z,0.70
2022-07-26T13:43:01.985Z,0.60
2022-07-26T13:45:29.422Z,0.60
2022-07-26T13:47:57.706Z,0.57
2022-07-26T13:50:26.851Z,0.45
2022-07-26T13:52:55.255Z,0.60
2022-07-26T13:55:22.491Z,0.70
2022-07-26T13:57:56.238Z,0.70
2022-07-26T14:00:28.794Z,0.60
2022-07-26T14:02:58.256Z,1.17
2022-07-26T14:05:26.149Z,0.60
2022-07-26T14:07:53.650Z,0.70
2022-07-26T14:10:21.433Z,0.80
2022-07-26T14:12:48.756Z,0.60
2022-07-26T14:15:21.430Z,0.88
2022-07-26T14:17:48.652Z,0.60
2022-07-26T14:20:16.910Z,0.47
2022-07-26T14:22:44.015Z,0.40
2022-07-26T14:25:10.837Z,0.57
2022-07-26T14:27:37.554Z,0.50
2022-07-26T14:30:05.095Z,0.40
2022-07-26T14:32:31.865Z,0.55
2022-07-26T14:34:58.565Z,0.52
2022-07-26T14:37:43.001Z,1.10
2022-07-26T14:40:16.865Z,0.70
2022-07-26T14:42:44.420Z,0.77
2022-07-26T14:45:11.971Z,0.50
2022-07-26T14:47:38.763Z,0.95
2022-07-26T14:50:07.934Z,0.77
2022-07-26T14:52:47.446Z,0.60
2022-07-26T14:55:17.405Z,1.02
2022-07-26T14:57:45.310Z,1.05
2022-07-26T15:00:17.730Z,1.00
2022-07-26T15:02:46.461Z,0.65
2022-07-26T15:05:14.543Z,0.50
2022-07-26T15:07:42.313Z,0.77
2022-07-26T15:10:11.641Z,1.00
2022-07-26T15:12:38.814Z,1.20
2022-07-26T15:15:07.186Z,0.70
2022-07-26T15:17:34.327Z,0.90
2022-07-26T15:20:01.769Z,0.90
2022-07-26T15:22:28.454Z,1.00
2022-07-26T15:24:55.146Z,0.73
2022-07-26T15:27:21.814Z,0.70
2022-07-26T15:29:50.475Z,1.05
2022-07-26T15:32:17.322Z,0.80
2022-07-26T15:34:44.104Z,0.95
2022-07-26T15:37:10.908Z,0.82
2022-07-26T15:39:37.556Z,1.30
2022-07-26T15:42:07.817Z,0.93
2022-07-26T15:44:37.716Z,1.13
2022-07-26T15:47:04.851Z,1.05
2022-07-26T15:49:31.567Z,1.00
2022-07-26T15:51:58.571Z,0.90
2022-07-26T15:54:25.283Z,0.77
2022-07-26T15:56:51.983Z,1.10
2022-07-26T15:59:18.642Z,0.90
2022-07-26T16:01:45.386Z,0.75
2022-07-26T16:04:12.556Z,0.70
2022-07-26T16:06:39.566Z,0.95
2022-07-26T16:09:17.110Z,0.85
2022-07-26T16:11:45.328Z,0.90
2022-07-26T16:14:12.140Z,0.90
2022-07-26T16:16:38.923Z,1.23
2022-07-26T16:19:05.782Z,0.85
2022-07-26T16:21:32.726Z,1.00
2022-07-26T16:24:03.100Z,1.33
2022-07-26T16:26:33.534Z,1.08
2022-07-26T16:29:00.680Z,1.23
2022-07-26T16:31:27.677Z,1.20
2022-07-26T16:33:54.484Z,1.58
2022-07-26T16:36:21.225Z,1.10
2022-07-26T16:38:48.005Z,1.10
2022-07-26T16:41:14.751Z,0.77
2022-07-26T16:43:41.685Z,1.20
2022-07-26T16:46:08.508Z,0.82
2022-07-26T16:48:35.223Z,1.42
2022-07-26T16:51:02.342Z,1.13
2022-07-26T16:53:29.105Z,1.10
2022-07-26T16:55:55.840Z,1.50
2022-07-26T16:58:22.730Z,1.20
2022-07-26T17:00:49.605Z,1.50
2022-07-26T17:03:16.650Z,0.95
2022-07-26T17:05:45.782Z,1.42
2022-07-26T17:08:12.642Z,0.73
2022-07-26T17:10:39.351Z,0.75
2022-07-26T17:13:06.037Z,1.20
2022-07-26T17:15:33.141Z,1.10
2022-07-26T17:17:59.940Z,0.90
2022-07-26T17:20:26.718Z,1.08
2022-07-26T17:22:54.329Z,0.63
2022-07-26T17:25:21.119Z,1.10
2022-07-26T17:27:47.833Z,0.85
2022-07-26T17:30:14.791Z,1.20
2022-07-26T17:32:41.623Z,1.10
2022-07-26T17:35:08.813Z,1.60
2022-07-26T17:37:35.776Z,1.20
2022-07-26T17:40:04.807Z,1.13
2022-07-26T17:42:35.831Z,1.48
2022-07-26T17:45:02.762Z,1.33
2022-07-26T17:47:30.422Z,0.98
2022-07-26T17:50:26.409Z,0.88
2022-07-26T17:52:50.011Z,1.20
2022-07-26T17:55:18.492Z,0.95
2022-07-26T17:57:45.908Z,0.90
2022-07-26T18:00:13.505Z,1.13
2022-07-26T18:02:40.354Z,0.90
2022-07-26T18:05:07.428Z,0.90
2022-07-26T18:07:34.118Z,1.17
2022-07-26T18:10:00.769Z,0.85
2022-07-26T18:12:27.502Z,1.30
2022-07-26T18:14:54.173Z,1.40
2022-07-26T18:17:20.842Z,1.20
2022-07-26T18:19:47.504Z,1.05
2022-07-26T18:22:14.605Z,1.25
2022-07-26T18:24:41.499Z,0.90
2022-07-26T18:27:08.210Z,0.95
2022-07-26T18:29:34.868Z,0.98
2022-07-26T18:32:02.144Z,1.00
2022-07-26T18:34:28.882Z,1.40
2022-07-26T18:36:55.768Z,1.10
2022-07-26T18:39:22.531Z,0.95
2022-07-26T18:41:49.320Z,0.90
2022-07-26T18:44:16.082Z,0.70
2022-07-26T18:46:42.932Z,0.77
2022-07-26T18:49:14.073Z,0.80
2022-07-26T18:51:48.563Z,0.88
2022-07-26T18:54:16.066Z,1.00
2022-07-26T18:56:42.722Z,0.90
2022-07-26T18:59:09.824Z,1.80
2022-07-26T19:01:36.962Z,0.65
2022-07-26T19:04:07.152Z,0.90
2022-07-26T19:06:35.505Z,1.40
2022-07-26T19:09:02.258Z,1.17
2022-07-26T19:11:30.129Z,0.90
2022-07-26T19:13:57.058Z,0.90
2022-07-26T19:16:26.604Z,1.00
2022-07-26T19:18:57.287Z,1.00
2022-07-26T19:21:24.267Z,1.05
2022-07-26T19:23:51.030Z,1.13
2022-07-26T19:26:17.734Z,0.80
2022-07-26T19:28:44.438Z,1.13
2022-07-26T19:31:11.335Z,0.70
2022-07-26T19:33:38.156Z,1.20
2022-07-26T19:36:04.966Z,1.20
2022-07-26T19:38:32.838Z,1.35
2022-07-26T19:41:00.236Z,0.90
2022-07-26T19:43:27.452Z,0.90
2022-07-26T19:45:54.198Z,0.90
2022-07-26T19:48:21.118Z,0.63
2022-07-26T19:50:47.808Z,1.30
2022-07-26T19:53:14.532Z,0.90
2022-07-26T19:55:42.334Z,1.00
2022-07-26T19:58:09.309Z,0.98
2022-07-26T20:00:36.577Z,0.90
2022-07-26T20:03:03.659Z,0.80
2022-07-26T20:05:30.869Z,0.93
2022-07-26T20:07:58.767Z,0.82
2022-07-26T20:10:31.519Z,1.05
2022-07-26T20:12:58.858Z,0.45
2022-07-26T20:15:26.005Z,0.75
2022-07-26T20:17:52.665Z,0.70
2022-07-26T20:20:19.989Z,0.70
2022-07-26T20:22:46.741Z,0.90
2022-07-26T20:25:18.070Z,0.68
2022-07-26T20:27:49.740Z,1.10
2022-07-26T20:30:16.974Z,1.15
2022-07-26T20:32:44.341Z,0.77
2022-07-26T20:35:11.251Z,1.00
2022-07-26T20:37:38.211Z,0.82
2022-07-26T20:40:05.509Z,0.85
2022-07-26T20:42:35.162Z,0.73
2022-07-26T20:45:02.150Z,1.05
2022-07-26T20:47:28.899Z,0.77
2022-07-26T20:49:59.733Z,0.90
2022-07-26T20:52:29.788Z,0.90
2022-07-26T20:54:56.469Z,0.70
2022-07-26T20:57:23.432Z,0.63
2022-07-26T20:59:50.178Z,0.93
2022-07-26T21:02:17.049Z,0.65
2022-07-26T21:04:45.039Z,0.80
2022-07-26T21:07:12.021Z,1.00
2022-07-26T21:09:38.846Z,0.93
2022-07-26T21:12:05.974Z,0.70
2022-07-26T21:14:32.626Z,0.68
2022-07-26T21:16:59.545Z,0.50
2022-07-26T21:19:26.318Z,0.93
2022-07-26T21:21:54.568Z,0.45
2022-07-26T21:24:21.398Z,0.68
2022-07-26T21:26:48.176Z,0.80
2022-07-26T21:29:15.327Z,0.70
2022-07-26T21:31:42.271Z,0.85
2022-07-26T21:34:09.994Z,1.15
2022-07-26T21:36:40.167Z,0.60
2022-07-26T21:39:08.219Z,0.60
2022-07-26T21:41:35.366Z,0.60
2022-07-26T21:44:02.850Z,0.75
2022-07-26T21:46:29.827Z,0.73
2022-07-26T21:48:56.621Z,0.82
2022-07-26T21:51:23.356Z,0.65
2022-07-26T21:53:50.079Z,0.88
2022-07-26T21:56:16.883Z,0.90
2022-07-26T21:58:43.616Z,0.63
2022-07-26T22:01:12.456Z,0.70
2022-07-26T22:03:40.486Z,0.70
2022-07-26T22:06:07.747Z,0.80
2022-07-26T22:08:35.225Z,0.90
2022-07-26T22:11:02.451Z,0.63
2022-07-26T22:13:29.249Z,0.77
2022-07-26T22:15:56.056Z,0.70
2022-07-26T22:18:22.788Z,0.60
2022-07-26T22:20:49.935Z,0.63
2022-07-26T22:23:18.576Z,0.55
2022-07-26T22:25:45.949Z,0.60
2022-07-26T22:28:17.820Z,0.90
2022-07-26T22:30:45.549Z,0.65
2022-07-26T22:33:12.309Z,0.93
2022-07-26T22:35:39.225Z,0.68
2022-07-26T22:38:08.655Z,0.90
2022-07-26T22:40:36.199Z,0.88
2022-07-26T22:43:03.338Z,0.47
2022-07-26T22:45:31.953Z,0.60
2022-07-26T22:47:58.997Z,0.65
2022-07-26T22:50:25.879Z,0.70
2022-07-26T22:52:52.825Z,0.73
2022-07-26T22:55:20.481Z,0.80
2022-07-26T22:57:47.369Z,0.70
2022-07-26T23:00:16.777Z,0.80
2022-07-26T23:02:43.978Z,0.50
2022-07-26T23:05:11.737Z,0.73
2022-07-26T23:07:38.913Z,0.43
2022-07-26T23:10:09.025Z,0.90
2022-07-26T23:12:35.987Z,0.75
2022-07-26T23:15:04.097Z,0.60
2022-07-26T23:17:30.785Z,0.55
2022-07-26T23:19:57.588Z,0.60
2022-07-26T23:22:24.310Z,1.10
2022-07-26T23:24:51.003Z,0.70
2022-07-26T23:27:20.121Z,0.60
2022-07-26T23:29:48.277Z,0.65
2022-07-26T23:32:15.870Z,1.15
2022-07-26T23:34:42.842Z,0.70
2022-07-26T23:37:09.887Z,0.70
2022-07-26T23:39:36.934Z,0.70
2022-07-26T23:42:03.720Z,0.57
2022-07-26T23:44:31.146Z,0.75
2022-07-26T23:46:58.404Z,0.70
2022-07-26T23:49:25.413Z,0.57
2022-07-26T23:51:53.032Z,0.47
2022-07-26T23:54:19.727Z,0.77
2022-07-26T23:56:46.608Z,0.80
2022-07-26T23:59:14.134Z,0.88
